createdAt,value
2022-10-13T00:02:10.099Z,5.15
2022-10-13T00:07:14.028Z,5.25
2022-10-13T00:12:17.229Z,5.00
2022-10-13T00:17:33.138Z,5.28
2022-10-13T00:22:39.277Z,4.30
2022-10-13T00:27:54.234Z,6.18
2022-10-13T00:33:08.058Z,5.18
2022-10-13T00:38:44.458Z,5.70
2022-10-13T00:44:13.609Z,4.32
2022-10-13T00:49:17.392Z,3.42
2022-10-13T00:54:27.071Z,3.70
2022-10-13T00:59:32.109Z,4.40
2022-10-13T01:04:44.557Z,3.22
2022-10-13T01:09:49.642Z,3.10
2022-10-13T01:15:10.921Z,2.92
2022-10-13T01:20:32.287Z,3.10
2022-10-13T01:26:18.972Z,3.13
2022-10-13T01:31:39.080Z,2.42
2022-10-13T01:37:15.015Z,3.20
2022-10-13T01:42:29.854Z,4.97
2022-10-13T01:47:38.653Z,3.17
2022-10-13T01:52:44.287Z,3.63
2022-10-13T01:57:47.823Z,3.42
2022-10-13T02:03:17.855Z,2.00
2022-10-13T02:08:57.974Z,2.60
2022-10-13T02:14:15.192Z,2.90
2022-10-13T02:19:19.219Z,2.08
2022-10-13T02:24:42.708Z,2.47
2022-10-13T02:29:55.624Z,2.95
2022-10-13T02:35:13.775Z,2.25
2022-10-13T02:40:26.300Z,3.65
2022-10-13T02:45:36.812Z,2.80
2022-10-13T02:50:54.407Z,3.67
2022-10-13T02:56:01.994Z,2.83
2022-10-13T03:01:15.101Z,2.88
2022-10-13T03:06:25.899Z,2.45
2022-10-13T03:11:47.000Z,2.75
2022-10-13T03:22:33.890Z,3.05
2022-10-13T03:28:20.532Z,2.60
2022-10-13T03:34:16.952Z,3.38
2022-10-13T03:39:31.679Z,2.50
2022-10-13T03:44:43.649Z,2.95
2022-10-13T03:50:09.251Z,2.95
2022-10-13T03:55:43.783Z,2.50
2022-10-13T04:00:59.047Z,2.67
2022-10-13T04:06:14.429Z,2.75
2022-10-13T04:11:54.323Z,2.08
2022-10-13T04:22:47.380Z,2.30
2022-10-13T04:28:32.409Z,2.22
2022-10-13T04:33:45.159Z,1.42
2022-10-13T04:44:10.607Z,1.88
2022-10-13T04:49:17.115Z,1.45
2022-10-13T04:54:20.605Z,1.40
2022-10-13T05:06:53.246Z,4.43
2022-10-13T05:12:05.523Z,4.00
2022-10-13T05:17:50.594Z,3.92
2022-10-13T05:29:26.158Z,3.25
2022-10-13T05:34:28.342Z,5.68
2022-10-13T05:39:39.202Z,4.95
2022-10-13T05:44:54.448Z,3.17
2022-10-13T05:55:34.771Z,4.38
2022-10-13T06:13:40.787Z,4.53
2022-10-13T06:24:34.059Z,5.70
2022-10-13T06:29:54.643Z,4.38
2022-10-13T06:34:59.776Z,3.22
2022-10-13T06:40:07.723Z,1.50
2022-10-13T06:45:15.061Z,2.50
2022-10-13T06:50:24.746Z,2.38
2022-10-13T06:55:32.454Z,1.10
2022-10-13T07:00:44.806Z,1.48
2022-10-13T07:06:39.949Z,1.10
2022-10-13T07:11:53.391Z,1.13
2022-10-13T07:23:14.755Z,0.95
2022-10-13T07:28:20.410Z,1.38
2022-10-13T07:33:23.097Z,0.93
2022-10-13T07:38:27.482Z,1.00
2022-10-13T07:43:45.430Z,1.10
2022-10-13T07:48:57.085Z,1.00
2022-10-13T07:54:14.595Z,1.10
2022-10-13T07:59:22.147Z,1.00
2022-10-13T08:04:37.950Z,1.05
2022-10-13T08:09:43.733Z,1.20
2022-10-13T08:14:50.654Z,1.33
2022-10-13T08:19:54.364Z,0.93
2022-10-13T08:25:23.440Z,1.40
2022-10-13T08:30:31.531Z,1.48
2022-10-13T08:35:35.175Z,2.63
2022-10-13T08:40:40.599Z,2.90
2022-10-13T08:45:42.846Z,2.30
2022-10-13T08:50:50.556Z,1.98
2022-10-13T08:56:23.001Z,1.50
2022-10-13T09:01:41.143Z,1.00
2022-10-13T09:06:54.834Z,1.10
2022-10-13T09:11:58.691Z,1.10
2022-10-13T09:17:19.089Z,0.98
2022-10-13T09:22:28.156Z,1.42
2022-10-13T09:28:06.917Z,0.50
2022-10-13T09:33:16.222Z,0.63
2022-10-13T09:38:27.992Z,0.77
2022-10-13T09:43:58.225Z,0.35
2022-10-13T09:49:32.666Z,0.50
2022-10-13T09:55:01.777Z,0.30
2022-10-13T10:00:28.517Z,0.35
2022-10-13T10:05:54.149Z,0.22
2022-10-13T10:11:06.320Z,0.20
2022-10-13T10:16:31.691Z,0.20
2022-10-13T10:22:46.679Z,0.10
2022-10-13T10:28:13.926Z,0.10
2022-10-13T10:39:08.220Z,0.05
2022-10-13T10:44:29.512Z,0.17
2022-10-13T10:49:54.517Z,0.10
2022-10-13T10:55:34.086Z,0.20
2022-10-13T11:01:05.655Z,0.13
2022-10-13T11:06:16.257Z,0.10
2022-10-13T11:11:37.952Z,0.17
2022-10-13T11:17:12.230Z,0.30
2022-10-13T11:22:20.669Z,0.20
2022-10-13T11:27:28.332Z,0.20
2022-10-13T11:32:35.712Z,0.20
2022-10-13T11:38:07.240Z,0.00
2022-10-13T11:43:50.361Z,0.00
2022-10-13T11:49:23.301Z,0.10
2022-10-13T11:55:21.959Z,0.10
2022-10-13T12:00:28.862Z,0.20
2022-10-13T12:05:32.835Z,0.20
2022-10-13T12:10:59.428Z,0.20
2022-10-13T12:16:11.708Z,0.10
2022-10-13T12:21:26.028Z,0.30
2022-10-13T12:31:49.809Z,1.02
2022-10-13T12:37:36.807Z,2.10
2022-10-13T12:42:41.437Z,1.50
2022-10-13T12:47:50.738Z,1.48
2022-10-13T12:52:59.273Z,2.25
2022-10-13T12:58:05.362Z,2.33
2022-10-13T13:03:22.914Z,2.72
2022-10-13T13:08:36.945Z,3.63
2022-10-13T13:14:47.245Z,2.30
2022-10-13T13:25:00.499Z,1.98
2022-10-13T13:30:18.295Z,1.80
2022-10-13T13:35:22.769Z,1.92
2022-10-13T13:40:28.331Z,2.65
2022-10-13T13:45:30.659Z,2.42
2022-10-13T13:50:41.035Z,3.03
2022-10-13T13:56:16.829Z,2.92
2022-10-13T14:01:59.681Z,2.55
2022-10-13T14:07:30.924Z,3.33
2022-10-13T14:12:38.636Z,2.28
2022-10-13T14:17:44.352Z,1.85
2022-10-13T14:22:52.837Z,2.28
2022-10-13T14:27:55.555Z,2.07
2022-10-13T14:32:58.322Z,2.15
2022-10-13T14:38:04.537Z,1.80
2022-10-13T14:43:08.578Z,1.80
2022-10-13T14:48:12.247Z,1.58
2022-10-13T14:53:15.816Z,1.17
2022-10-13T14:58:46.504Z,1.77
2022-10-13T15:03:51.486Z,1.33
2022-10-13T15:08:53.996Z,1.13
2022-10-13T15:14:00.288Z,1.20
2022-10-13T15:19:07.001Z,1.45
2022-10-13T15:24:12.006Z,1.00
2022-10-13T15:29:21.421Z,0.55
2022-10-13T15:34:25.016Z,0.77
2022-10-13T15:39:33.807Z,0.50
2022-10-13T15:50:20.162Z,0.70
2022-10-13T15:55:25.829Z,0.77
2022-10-13T16:00:29.893Z,0.60
2022-10-13T16:05:40.122Z,0.90
2022-10-13T16:10:44.089Z,1.67
2022-10-13T16:15:57.782Z,2.08
2022-10-13T16:20:59.955Z,3.30
2022-10-13T16:26:03.705Z,3.35
2022-10-13T16:31:15.334Z,3.08
2022-10-13T16:36:20.098Z,2.58
2022-10-13T16:41:26.790Z,3.03
2022-10-13T16:46:37.814Z,2.00
2022-10-13T16:52:14.266Z,2.30
2022-10-13T16:57:16.771Z,1.70
2022-10-13T17:02:21.182Z,2.35
2022-10-13T17:07:24.945Z,1.90
2022-10-13T17:12:27.535Z,1.65
2022-10-13T17:17:38.134Z,1.65
2022-10-13T17:22:41.706Z,1.60
2022-10-13T17:27:44.117Z,1.40
2022-10-13T17:32:48.910Z,1.95
2022-10-13T17:37:55.602Z,1.98
2022-10-13T17:42:59.739Z,2.80
2022-10-13T17:48:09.250Z,2.50
2022-10-13T17:53:12.821Z,3.25
2022-10-13T17:58:16.565Z,3.13
2022-10-13T18:03:21.139Z,4.60
2022-10-13T18:08:26.562Z,2.83
2022-10-13T18:13:28.805Z,2.83
2022-10-13T18:18:32.448Z,3.35
2022-10-13T18:23:43.588Z,3.88
2022-10-13T18:28:50.032Z,5.57
2022-10-13T18:33:59.211Z,5.95
2022-10-13T18:39:18.207Z,3.45
2022-10-13T18:44:27.159Z,4.40
2022-10-13T18:49:31.997Z,3.97
2022-10-13T18:54:40.253Z,5.03
2022-10-13T18:59:44.344Z,4.82
2022-10-13T19:04:47.457Z,4.65
2022-10-13T19:09:51.433Z,3.92
2022-10-13T19:14:58.615Z,5.03
2022-10-13T19:20:05.309Z,5.53
2022-10-13T19:25:11.171Z,5.07
2022-10-13T19:30:14.450Z,4.97
2022-10-13T19:35:27.020Z,5.28
2022-10-13T19:40:42.260Z,6.10
2022-10-13T19:45:52.266Z,6.65
2022-10-13T19:51:08.330Z,8.68
2022-10-13T19:56:31.679Z,6.72
2022-10-13T20:01:41.241Z,5.75
2022-10-13T20:06:51.366Z,7.07
2022-10-13T20:11:58.945Z,6.35
2022-10-13T20:17:01.652Z,6.30
2022-10-13T20:22:05.966Z,5.53
2022-10-13T20:27:09.856Z,5.32
2022-10-13T20:32:15.688Z,7.18
2022-10-13T20:37:18.588Z,6.57
2022-10-13T20:42:25.975Z,5.72
2022-10-13T20:47:28.337Z,6.40
2022-10-13T20:52:34.863Z,5.70
2022-10-13T20:57:40.330Z,5.38
2022-10-13T21:02:52.459Z,6.07
2022-10-13T21:07:57.031Z,5.43
2022-10-13T21:12:59.645Z,4.03
2022-10-13T21:18:02.697Z,7.68
2022-10-13T21:23:06.945Z,6.00
2022-10-13T21:28:10.888Z,6.82
2022-10-13T21:33:16.609Z,4.75
2022-10-13T21:38:21.863Z,6.05
2022-10-13T21:43:27.035Z,4.95
2022-10-13T21:48:29.720Z,5.32
2022-10-13T21:53:34.106Z,4.20
2022-10-13T21:58:39.809Z,3.35
2022-10-13T22:03:43.896Z,4.63
2022-10-13T22:08:49.803Z,5.28
2022-10-13T22:14:09.801Z,4.68
2022-10-13T22:19:20.078Z,3.33
2022-10-13T22:24:31.096Z,3.75
2022-10-13T22:29:35.024Z,4.82
2022-10-13T22:34:45.695Z,5.35
2022-10-13T22:52:32.797Z,4.40
2022-10-13T22:57:47.040Z,4.55
2022-10-13T23:03:19.356Z,5.05
2022-10-13T23:37:27.955Z,7.68
2022-10-13T23:42:59.290Z,7.13
2022-10-13T23:48:18.946Z,8.35
2022-10-13T23:53:41.515Z,7.43
2022-10-13T23:58:58.501Z,7.22
